createdAt,value
2016-06-24T00:00:50.756Z,-87
2016-06-24T00:00:57.742Z,-86
2016-06-24T00:01:58.193Z,-87
2016-06-24T00:02:58.211Z,-87
2016-06-24T00:03:57.723Z,-86
2016-06-24T00:04:57.690Z,-87
2016-06-24T00:05:57.737Z,-87
2016-06-24T00:06:57.671Z,-87
2016-06-24T00:07:57.679Z,-87
2016-06-24T00:08:58.315Z,-87
2016-06-24T00:09:59.090Z,-87
2016-06-24T00:10:57.708Z,-86
2016-06-24T00:11:57.649Z,-87
2016-06-24T00:12:57.671Z,-86
2016-06-24T00:13:57.737Z,-87
2016-06-24T00:14:57.724Z,-87
2016-06-24T00:15:57.712Z,-86
2016-06-24T00:16:57.718Z,-86
2016-06-24T00:17:57.723Z,-86
2016-06-24T00:18:57.723Z,-86
2016-06-24T00:19:57.704Z,-86
2016-06-24T00:20:57.740Z,-86
2016-06-24T00:21:57.757Z,-86
2016-06-24T00:22:57.714Z,-86
2016-06-24T00:23:57.709Z,-86
2016-06-24T00:24:57.700Z,-87
2016-06-24T00:25:57.793Z,-86
2016-06-24T00:26:57.785Z,-86
2016-06-24T00:27:57.751Z,-86
2016-06-24T00:28:57.758Z,-87
2016-06-24T00:29:58.331Z,-87
2016-06-24T00:30:57.781Z,-86
2016-06-24T00:31:58.268Z,-87
2016-06-24T00:32:58.731Z,-86
2016-06-24T00:33:57.776Z,-87
2016-06-24T00:34:57.709Z,-86
2016-06-24T00:35:57.810Z,-87
2016-06-24T00:36:57.743Z,-86
2016-06-24T00:37:57.725Z,-86
2016-06-24T00:38:57.799Z,-87
2016-06-24T00:39:57.766Z,-87
2016-06-24T00:40:57.724Z,-87
2016-06-24T00:41:57.823Z,-86
2016-06-24T00:42:57.791Z,-87
2016-06-24T00:43:57.765Z,-86
2016-06-24T00:44:57.787Z,-86
2016-06-24T00:45:57.784Z,-86
2016-06-24T00:46:57.797Z,-87
2016-06-24T00:47:57.806Z,-86
2016-06-24T00:48:57.759Z,-87
2016-06-24T00:49:57.800Z,-87
2016-06-24T00:50:57.793Z,-87
2016-06-24T00:51:57.840Z,-87
2016-06-24T00:52:57.818Z,-87
2016-06-24T00:53:57.773Z,-86
2016-06-24T00:54:57.821Z,-87
2016-06-24T00:55:57.853Z,-87
2016-06-24T00:56:57.803Z,-86
2016-06-24T00:57:57.822Z,-87
2016-06-24T00:58:57.791Z,-87
2016-06-24T00:59:57.883Z,-86
2016-06-24T01:00:57.818Z,-86
2016-06-24T01:01:57.854Z,-87
2016-06-24T01:02:57.800Z,-87
2016-06-24T01:03:57.825Z,-86
2016-06-24T01:04:57.864Z,-87
2016-06-24T01:05:57.870Z,-87
2016-06-24T01:06:57.922Z,-87
2016-06-24T01:07:57.825Z,-86
2016-06-24T01:08:57.787Z,-86
2016-06-24T01:09:57.838Z,-85
2016-06-24T01:10:57.862Z,-86
2016-06-24T01:11:57.850Z,-86
2016-06-24T01:12:57.880Z,-87
2016-06-24T01:13:57.883Z,-86
2016-06-24T01:14:58.422Z,-86
2016-06-24T01:15:57.856Z,-86
2016-06-24T01:16:57.877Z,-86
2016-06-24T01:17:57.856Z,-86
2016-06-24T01:18:57.856Z,-86
2016-06-24T01:19:57.858Z,-86
2016-06-24T01:20:57.810Z,-86
2016-06-24T01:21:57.873Z,-86
2016-06-24T01:22:57.854Z,-86
2016-06-24T01:23:57.892Z,-86
2016-06-24T01:24:58.554Z,-86
2016-06-24T01:25:57.890Z,-85
2016-06-24T01:26:57.915Z,-86
2016-06-24T01:27:57.910Z,-86
2016-06-24T01:28:57.848Z,-86
2016-06-24T01:29:57.896Z,-86
2016-06-24T01:30:57.874Z,-86
2016-06-24T01:31:57.881Z,-86
2016-06-24T01:32:57.915Z,-86
2016-06-24T01:33:58.571Z,-85
2016-06-24T01:34:57.870Z,-86
2016-06-24T01:35:57.921Z,-86
2016-06-24T01:36:57.951Z,-86
2016-06-24T01:37:57.956Z,-86
2016-06-24T01:38:57.956Z,-86
2016-06-24T01:39:57.920Z,-86
2016-06-24T01:40:57.883Z,-86
2016-06-24T01:41:57.975Z,-86
2016-06-24T01:42:57.889Z,-86
2016-06-24T01:43:57.951Z,-86
2016-06-24T01:44:57.911Z,-85
2016-06-24T01:45:57.960Z,-86
2016-06-24T01:46:57.946Z,-85
2016-06-24T01:47:57.979Z,-86
2016-06-24T01:48:57.970Z,-86
2016-06-24T01:49:57.960Z,-86
2016-06-24T01:50:57.907Z,-85
2016-06-24T01:51:57.905Z,-86
2016-06-24T01:52:57.915Z,-86
2016-06-24T01:53:57.929Z,-86
2016-06-24T01:54:57.939Z,-86
2016-06-24T01:55:58.011Z,-86
2016-06-24T01:56:57.976Z,-86
2016-06-24T01:57:57.938Z,-86
2016-06-24T01:58:57.969Z,-86
2016-06-24T01:59:57.999Z,-86
2016-06-24T02:00:57.988Z,-86
2016-06-24T02:01:57.957Z,-86
2016-06-24T02:02:57.930Z,-86
2016-06-24T02:03:57.979Z,-86
2016-06-24T02:04:57.956Z,-85
2016-06-24T02:05:57.985Z,-86
2016-06-24T02:06:57.972Z,-86
2016-06-24T02:07:57.956Z,-86
2016-06-24T02:08:57.987Z,-86
2016-06-24T02:09:58.030Z,-86
2016-06-24T02:10:58.007Z,-86
2016-06-24T02:11:57.947Z,-86
2016-06-24T02:12:58.014Z,-86
2016-06-24T02:13:58.047Z,-86
2016-06-24T02:14:57.994Z,-86
2016-06-24T02:15:57.962Z,-85
2016-06-24T02:16:58.023Z,-85
2016-06-24T02:17:57.964Z,-86
2016-06-24T02:18:57.927Z,-86
2016-06-24T02:19:58.001Z,-85
2016-06-24T02:20:57.991Z,-86
2016-06-24T02:21:58.974Z,-86
2016-06-24T02:22:58.353Z,-86
2016-06-24T02:23:57.974Z,-86
2016-06-24T02:24:58.002Z,-86
2016-06-24T02:25:57.969Z,-86
2016-06-24T02:26:58.001Z,-85
2016-06-24T02:27:57.969Z,-85
2016-06-24T02:28:57.951Z,-85
2016-06-24T02:29:58.035Z,-85
2016-06-24T02:30:58.023Z,-85
2016-06-24T02:31:58.024Z,-86
2016-06-24T02:32:58.043Z,-85
2016-06-24T02:33:58.069Z,-86
2016-06-24T02:34:58.006Z,-86
2016-06-24T02:35:58.014Z,-86
2016-06-24T02:36:58.046Z,-86
2016-06-24T02:37:58.018Z,-86
2016-06-24T02:38:58.013Z,-86
2016-06-24T02:39:58.044Z,-86
2016-06-24T02:40:58.060Z,-86
2016-06-24T02:41:58.072Z,-86
2016-06-24T02:42:58.087Z,-86
2016-06-24T02:43:58.048Z,-86
2016-06-24T02:44:58.059Z,-86
2016-06-24T02:45:58.020Z,-86
2016-06-24T02:46:58.041Z,-86
2016-06-24T02:47:58.012Z,-86
2016-06-24T02:48:58.098Z,-86
2016-06-24T02:49:58.042Z,-86
2016-06-24T02:50:58.074Z,-86
2016-06-24T02:51:58.114Z,-86
2016-06-24T02:52:58.099Z,-86
2016-06-24T02:53:58.087Z,-86
2016-06-24T02:54:58.094Z,-86
2016-06-24T02:55:58.065Z,-86
2016-06-24T02:56:58.126Z,-86
2016-06-24T02:57:58.083Z,-86
2016-06-24T02:58:58.066Z,-86
2016-06-24T02:59:58.054Z,-87
2016-06-24T03:00:58.081Z,-85
2016-06-24T03:01:58.091Z,-86
2016-06-24T03:02:58.058Z,-86
2016-06-24T03:03:58.109Z,-85
2016-06-24T03:04:58.104Z,-86
2016-06-24T03:05:58.081Z,-86
2016-06-24T03:06:58.127Z,-86
2016-06-24T03:07:58.119Z,-87
2016-06-24T03:08:58.059Z,-86
2016-06-24T03:09:58.078Z,-86
2016-06-24T03:10:58.139Z,-87
2016-06-24T03:16:16.889Z,-86
2016-06-24T03:16:23.776Z,-86
2016-06-24T03:17:23.845Z,-86
2016-06-24T03:18:23.809Z,-86
2016-06-24T03:19:23.758Z,-85
2016-06-24T03:20:23.774Z,-86
2016-06-24T03:21:23.798Z,-86
2016-06-24T03:22:23.802Z,-86
2016-06-24T03:23:23.859Z,-86
2016-06-24T03:24:23.802Z,-86
2016-06-24T03:25:23.831Z,-87
2016-06-24T03:26:23.839Z,-86
2016-06-24T03:27:23.826Z,-86
2016-06-24T03:28:23.814Z,-87
2016-06-24T03:29:23.846Z,-87
2016-06-24T03:30:23.855Z,-86
2016-06-24T03:31:23.789Z,-87
2016-06-24T03:32:23.804Z,-87
2016-06-24T03:33:23.908Z,-86
2016-06-24T03:34:23.832Z,-86
2016-06-24T03:35:23.862Z,-88
2016-06-24T03:36:23.841Z,-88
2016-06-24T03:37:23.855Z,-88
2016-06-24T03:38:23.855Z,-90
2016-06-24T03:39:23.842Z,-89
2016-06-24T03:40:23.878Z,-91
2016-06-24T03:41:23.858Z,-92
2016-06-24T03:42:23.905Z,-90
2016-06-24T03:43:23.863Z,-92
2016-06-24T03:44:23.894Z,-94
2016-06-24T03:45:23.808Z,-94
2016-06-24T03:46:23.850Z,-92
2016-06-24T03:47:23.878Z,-91
2016-06-24T03:48:23.863Z,-90
2016-06-24T03:49:23.930Z,-90
2016-06-24T03:50:23.911Z,-89
2016-06-24T03:51:23.900Z,-88
2016-06-24T03:52:23.914Z,-89
2016-06-24T03:53:23.900Z,-88
2016-06-24T03:54:23.898Z,-88
2016-06-24T03:55:24.482Z,-87
2016-06-24T03:56:23.998Z,-88
2016-06-24T03:57:23.886Z,-87
2016-06-24T03:58:23.890Z,-87
2016-06-24T03:59:23.970Z,-88
2016-06-24T04:00:23.888Z,-88
2016-06-24T04:01:23.862Z,-87
2016-06-24T04:02:23.915Z,-87
2016-06-24T04:03:23.921Z,-87
2016-06-24T04:04:23.921Z,-88
2016-06-24T04:05:23.931Z,-87
2016-06-24T04:06:23.901Z,-87
2016-06-24T04:07:23.899Z,-87
2016-06-24T04:08:23.908Z,-87
2016-06-24T04:09:23.964Z,-87
2016-06-24T04:10:23.938Z,-87
2016-06-24T04:11:23.918Z,-86
2016-06-24T04:12:23.954Z,-87
2016-06-24T04:13:23.940Z,-87
2016-06-24T04:14:23.911Z,-87
2016-06-24T04:15:23.919Z,-87
2016-06-24T04:16:23.974Z,-87
2016-06-24T04:17:24.775Z,-87
2016-06-24T04:18:24.721Z,-86
2016-06-24T04:19:23.945Z,-87
2016-06-24T04:20:23.945Z,-86
2016-06-24T04:21:24.645Z,-87
2016-06-24T04:22:23.912Z,-87
2016-06-24T04:23:24.010Z,-87
2016-06-24T04:24:23.982Z,-86
2016-06-24T04:25:24.017Z,-87
2016-06-24T04:26:23.962Z,-87
2016-06-24T04:27:23.943Z,-86
2016-06-24T04:28:23.966Z,-86
2016-06-24T04:29:24.046Z,-87
2016-06-24T04:30:24.029Z,-86
2016-06-24T04:31:23.975Z,-86
2016-06-24T04:32:23.982Z,-87
2016-06-24T04:33:23.949Z,-87
2016-06-24T04:34:24.057Z,-87
2016-06-24T04:35:24.011Z,-87
2016-06-24T04:36:23.991Z,-87
2016-06-24T04:37:24.011Z,-87
2016-06-24T04:38:23.986Z,-87
2016-06-24T04:39:23.994Z,-87
2016-06-24T04:40:23.975Z,-86
2016-06-24T04:41:24.010Z,-87
2016-06-24T04:42:24.005Z,-87
2016-06-24T04:43:24.706Z,-87
2016-06-24T04:44:24.031Z,-87
2016-06-24T04:45:24.741Z,-87
2016-06-24T04:46:24.051Z,-87
2016-06-24T04:47:24.022Z,-87
2016-06-24T04:48:24.031Z,-88
2016-06-24T04:49:24.017Z,-88
2016-06-24T04:50:23.969Z,-89
2016-06-24T04:51:23.987Z,-89
2016-06-24T04:52:24.024Z,-89
2016-06-24T04:53:24.026Z,-88
2016-06-24T04:54:23.978Z,-89
2016-06-24T04:55:24.061Z,-88
2016-06-24T04:56:24.044Z,-88
2016-06-24T04:57:24.040Z,-89
2016-06-24T04:58:24.018Z,-89
2016-06-24T04:59:24.041Z,-88
2016-06-24T05:00:24.042Z,-88
2016-06-24T05:01:24.065Z,-89
2016-06-24T05:02:24.062Z,-88
2016-06-24T05:03:24.009Z,-89
2016-06-24T05:04:24.077Z,-88
2016-06-24T05:05:24.090Z,-88
2016-06-24T05:06:24.084Z,-88
2016-06-24T05:07:24.038Z,-88
2016-06-24T05:08:24.043Z,-88
2016-06-24T05:09:24.039Z,-88
2016-06-24T05:10:24.089Z,-88
2016-06-24T05:11:24.051Z,-89
2016-06-24T05:12:24.027Z,-88
2016-06-24T05:13:24.134Z,-88
2016-06-24T05:14:24.007Z,-88
2016-06-24T05:15:24.056Z,-88
2016-06-24T05:16:24.087Z,-88
2016-06-24T05:17:24.052Z,-87
2016-06-24T05:18:24.077Z,-88
2016-06-24T05:19:24.063Z,-88
2016-06-24T05:20:24.046Z,-88
2016-06-24T05:21:24.077Z,-88
2016-06-24T05:22:24.077Z,-88
2016-06-24T05:23:24.082Z,-88
2016-06-24T05:24:24.091Z,-87
2016-06-24T05:25:24.122Z,-88
2016-06-24T05:26:24.115Z,-88
2016-06-24T05:27:24.083Z,-88
2016-06-24T05:28:24.120Z,-88
2016-06-24T05:29:24.114Z,-87
2016-06-24T05:30:24.094Z,-88
2016-06-24T05:31:24.081Z,-88
2016-06-24T05:32:24.131Z,-88
2016-06-24T05:33:24.181Z,-87
2016-06-24T05:34:24.099Z,-87
2016-06-24T05:35:24.128Z,-87
2016-06-24T05:36:24.139Z,-88
2016-06-24T05:37:24.122Z,-88
2016-06-24T05:38:24.070Z,-88
2016-06-24T05:39:24.082Z,-88
2016-06-24T05:40:24.076Z,-87
2016-06-24T05:41:24.127Z,-88
2016-06-24T05:42:24.138Z,-87
2016-06-24T05:43:24.126Z,-88
2016-06-24T05:44:24.140Z,-88
2016-06-24T05:45:24.159Z,-88
2016-06-24T05:46:24.170Z,-90
2016-06-24T05:47:24.138Z,-89
2016-06-24T05:48:24.157Z,-87
2016-06-24T05:49:24.194Z,-89
2016-06-24T05:50:24.196Z,-89
2016-06-24T05:51:24.184Z,-89
2016-06-24T05:52:24.143Z,-89
2016-06-24T05:53:24.177Z,-88
2016-06-24T05:54:24.173Z,-89
2016-06-24T05:55:24.130Z,-89
2016-06-24T05:56:24.169Z,-89
2016-06-24T05:57:24.128Z,-89
2016-06-24T05:58:24.121Z,-89
2016-06-24T05:59:24.205Z,-90
2016-06-24T06:00:24.294Z,-90
2016-06-24T06:01:24.155Z,-89
2016-06-24T06:02:24.178Z,-89
2016-06-24T06:03:24.133Z,-90
2016-06-24T06:04:24.169Z,-90
2016-06-24T06:05:24.174Z,-89
2016-06-24T06:06:24.161Z,-90
2016-06-24T06:07:24.147Z,-92
2016-06-24T06:08:24.276Z,-90
2016-06-24T06:09:24.257Z,-95
2016-06-24T06:10:24.247Z,-95
2016-06-24T06:11:24.344Z,-90
2016-06-24T06:12:24.178Z,-92
2016-06-24T06:13:24.220Z,-94
2016-06-24T06:14:24.245Z,-91
2016-06-24T06:15:24.278Z,-89
2016-06-24T06:16:24.282Z,-94
2016-06-24T06:17:24.244Z,-93
2016-06-24T06:18:24.251Z,-95
2016-06-24T06:19:24.252Z,-94
2016-06-24T06:20:24.185Z,-94
2016-06-24T06:21:24.229Z,-95
2016-06-24T06:22:24.274Z,-95
2016-06-24T06:23:24.258Z,-94
2016-06-24T06:24:24.235Z,-94
2016-06-24T06:25:24.290Z,-95
2016-06-24T06:26:24.282Z,-94
2016-06-24T06:27:24.255Z,-95
2016-06-24T06:28:24.219Z,-96
2016-06-24T06:29:24.232Z,-96
2016-06-24T06:30:24.338Z,-96
2016-06-24T06:31:24.257Z,-96
2016-06-24T06:32:24.242Z,-96
2016-06-24T06:33:24.247Z,-96
2016-06-24T06:34:24.215Z,-96
2016-06-24T06:35:24.270Z,-95
2016-06-24T06:36:24.241Z,-95
2016-06-24T06:37:24.239Z,-95
2016-06-24T06:38:24.279Z,-95
2016-06-24T06:39:24.342Z,-93
2016-06-24T06:40:24.462Z,-95
2016-06-24T06:41:24.310Z,-94
2016-06-24T06:42:24.235Z,-96
2016-06-24T06:43:24.956Z,-96
2016-06-24T06:44:24.444Z,-94
2016-06-24T06:45:24.311Z,-94
2016-06-24T06:46:24.322Z,-94
2016-06-24T06:47:24.763Z,-94
2016-06-24T06:48:24.306Z,-94
2016-06-24T06:49:24.299Z,-95
2016-06-24T06:50:24.350Z,-96
2016-06-24T06:52:24.466Z,-96
2016-06-24T06:53:24.342Z,-96
2016-06-24T06:54:24.432Z,-96
2016-06-24T06:55:24.295Z,-96
2016-06-24T06:56:24.379Z,-96
2016-06-24T06:57:24.562Z,-96
2016-06-24T06:58:24.409Z,-96
2016-06-24T06:59:24.459Z,-95
2016-06-24T07:00:25.899Z,-96
2016-06-24T07:01:24.400Z,-96
2016-06-24T07:02:24.457Z,-96
2016-06-24T07:03:24.351Z,-96
2016-06-24T07:04:24.338Z,-96
2016-06-24T07:05:24.418Z,-96
2016-06-24T07:06:24.312Z,-96
2016-06-24T07:07:24.387Z,-94
2016-06-24T07:08:24.363Z,-96
2016-06-24T07:09:24.359Z,-96
2016-06-24T07:10:24.369Z,-95
2016-06-24T07:11:24.412Z,-96
2016-06-24T07:12:24.367Z,-96
2016-06-24T07:13:24.333Z,-96
2016-06-24T07:14:24.488Z,-95
2016-06-24T07:15:24.398Z,-96
2016-06-24T07:16:24.442Z,-96
2016-06-24T07:17:24.441Z,-96
2016-06-24T07:18:24.643Z,-96
2016-06-24T07:19:24.421Z,-96
2016-06-24T07:20:24.350Z,-96
2016-06-24T07:21:24.371Z,-96
2016-06-24T07:22:24.349Z,-96
2016-06-24T07:23:24.454Z,-96
2016-06-24T07:24:24.898Z,-96
2016-06-24T07:25:24.729Z,-96
2016-06-24T07:26:24.335Z,-94
2016-06-24T07:27:24.441Z,-95
2016-06-24T07:28:24.337Z,-94
2016-06-24T07:29:24.398Z,-95
2016-06-24T07:30:24.427Z,-96
2016-06-24T07:31:24.836Z,-95
2016-06-24T07:32:24.342Z,-96
2016-06-24T07:33:24.426Z,-94
2016-06-24T07:34:24.374Z,-93
2016-06-24T07:35:24.415Z,-93
2016-06-24T07:36:24.472Z,-93
2016-06-24T07:37:24.418Z,-93
2016-06-24T07:38:24.348Z,-93
2016-06-24T07:39:25.057Z,-91
2016-06-24T07:40:24.331Z,-92
2016-06-24T07:41:24.497Z,-92
2016-06-24T07:42:24.566Z,-91
2016-06-24T07:43:24.352Z,-91
2016-06-24T07:44:24.356Z,-92
2016-06-24T07:45:24.402Z,-91
2016-06-24T07:46:24.441Z,-92
2016-06-24T07:47:24.364Z,-92
2016-06-24T07:48:24.487Z,-92
2016-06-24T07:49:24.485Z,-91
2016-06-24T07:50:24.410Z,-92
2016-06-24T07:51:24.408Z,-92
2016-06-24T07:52:24.406Z,-94
2016-06-24T07:53:24.369Z,-96
2016-06-24T07:54:24.465Z,-94
2016-06-24T07:55:24.399Z,-90
2016-06-24T07:56:24.413Z,-91
2016-06-24T07:57:24.405Z,-92
2016-06-24T07:58:24.463Z,-93
2016-06-24T07:59:24.401Z,-93
2016-06-24T08:00:24.472Z,-94
2016-06-24T08:01:24.417Z,-91
2016-06-24T08:02:24.510Z,-90
2016-06-24T08:03:24.410Z,-91
2016-06-24T08:04:24.372Z,-92
2016-06-24T08:05:24.415Z,-91
2016-06-24T08:06:24.463Z,-90
2016-06-24T08:07:24.374Z,-90
2016-06-24T08:08:24.408Z,-88
2016-06-24T08:09:24.395Z,-88
2016-06-24T08:10:24.463Z,-87
2016-06-24T08:11:24.428Z,-87
2016-06-24T08:12:24.465Z,-88
2016-06-24T08:13:24.433Z,-87
2016-06-24T08:14:24.516Z,-88
2016-06-24T08:15:24.466Z,-87
2016-06-24T08:16:24.424Z,-87
2016-06-24T08:17:24.386Z,-88
2016-06-24T08:18:24.432Z,-88
2016-06-24T08:19:24.462Z,-88
2016-06-24T08:20:24.448Z,-88
2016-06-24T08:21:24.524Z,-88
2016-06-24T08:22:24.421Z,-87
2016-06-24T08:23:24.563Z,-87
2016-06-24T08:24:24.551Z,-87
2016-06-24T08:25:24.452Z,-87
2016-06-24T08:26:24.470Z,-87
2016-06-24T08:27:24.442Z,-86
2016-06-24T08:28:24.477Z,-87
2016-06-24T08:29:24.448Z,-86
2016-06-24T08:30:24.379Z,-86
2016-06-24T08:31:24.466Z,-86
2016-06-24T08:32:24.490Z,-85
2016-06-24T08:33:24.507Z,-86
2016-06-24T08:34:24.391Z,-86
2016-06-24T08:35:24.444Z,-86
2016-06-24T08:36:24.463Z,-86
2016-06-24T08:37:24.421Z,-87
2016-06-24T08:38:24.472Z,-87
2016-06-24T08:39:24.558Z,-87
2016-06-24T08:40:24.498Z,-87
2016-06-24T08:41:24.490Z,-86
2016-06-24T08:42:24.543Z,-87
2016-06-24T08:43:24.435Z,-87
2016-06-24T08:44:24.834Z,-87
2016-06-24T08:45:25.119Z,-87
2016-06-24T08:46:24.437Z,-87
2016-06-24T08:47:24.438Z,-87
2016-06-24T08:48:24.496Z,-87
2016-06-24T08:49:24.425Z,-88
2016-06-24T08:50:24.408Z,-89
2016-06-24T08:51:24.598Z,-88
2016-06-24T08:52:24.506Z,-88
2016-06-24T08:53:24.438Z,-88
2016-06-24T08:54:24.460Z,-87
2016-06-24T08:55:24.477Z,-88
2016-06-24T08:56:24.457Z,-88
2016-06-24T08:57:24.478Z,-89
2016-06-24T08:58:24.485Z,-88
2016-06-24T08:59:24.505Z,-88
2016-06-24T09:00:24.503Z,-89
2016-06-24T09:01:24.555Z,-89
2016-06-24T09:02:24.547Z,-90
2016-06-24T09:03:24.543Z,-89
2016-06-24T09:04:24.539Z,-90
2016-06-24T09:05:25.342Z,-90
2016-06-24T09:06:24.472Z,-89
2016-06-24T09:07:24.790Z,-90
2016-06-24T09:08:24.470Z,-91
2016-06-24T09:09:24.487Z,-91
2016-06-24T09:10:24.476Z,-91
2016-06-24T09:11:24.564Z,-90
2016-06-24T09:12:24.579Z,-91
2016-06-24T09:13:24.498Z,-90
2016-06-24T09:14:24.517Z,-89
2016-06-24T09:15:24.555Z,-91
2016-06-24T09:16:24.507Z,-90
2016-06-24T09:17:24.482Z,-90
2016-06-24T09:18:24.527Z,-90
2016-06-24T09:19:24.500Z,-91
2016-06-24T09:20:24.598Z,-90
2016-06-24T09:21:24.497Z,-91
2016-06-24T09:31:03.658Z,-90
2016-06-24T09:31:10.508Z,-90
2016-06-24T09:32:10.737Z,-90
2016-06-24T09:33:10.615Z,-91
2016-06-24T09:34:10.650Z,-90
2016-06-24T09:35:10.606Z,-90
2016-06-24T09:36:10.597Z,-90
2016-06-24T09:37:10.594Z,-89
2016-06-24T09:38:10.578Z,-89
2016-06-24T09:39:10.609Z,-89
2016-06-24T09:40:10.539Z,-89
2016-06-24T09:41:10.566Z,-89
2016-06-24T09:42:10.596Z,-89
2016-06-24T09:43:10.599Z,-89
2016-06-24T09:44:10.678Z,-88
2016-06-24T09:45:10.556Z,-88
2016-06-24T09:46:10.617Z,-87
2016-06-24T09:47:10.603Z,-87
2016-06-24T09:48:10.676Z,-86
2016-06-24T09:49:10.557Z,-86
2016-06-24T09:50:10.740Z,-85
2016-06-24T09:51:10.780Z,-86
2016-06-24T09:52:10.671Z,-86
2016-06-24T09:53:10.775Z,-84
2016-06-24T09:54:10.675Z,-86
2016-06-24T09:55:10.787Z,-86
2016-06-24T09:56:10.634Z,-86
2016-06-24T09:57:10.713Z,-87
2016-06-24T09:58:11.116Z,-86
2016-06-24T09:59:10.692Z,-85
2016-06-24T10:00:10.948Z,-86
2016-06-24T10:01:10.681Z,-86
2016-06-24T10:02:10.719Z,-87
2016-06-24T10:03:10.684Z,-86
2016-06-24T10:04:10.675Z,-86
2016-06-24T10:05:10.657Z,-87
2016-06-24T10:06:10.645Z,-86
2016-06-24T10:07:10.598Z,-86
2016-06-24T10:08:10.667Z,-87
2016-06-24T10:09:10.680Z,-87
2016-06-24T10:10:10.619Z,-87
2016-06-24T10:11:10.738Z,-88
2016-06-24T10:12:10.646Z,-88
2016-06-24T10:13:10.567Z,-88
2016-06-24T10:14:11.227Z,-87
2016-06-24T10:15:10.709Z,-89
2016-06-24T10:16:10.685Z,-89
2016-06-24T10:17:10.659Z,-91
2016-06-24T10:18:10.594Z,-91
2016-06-24T10:19:10.619Z,-90
2016-06-24T10:20:10.605Z,-90
2016-06-24T10:21:10.676Z,-89
2016-06-24T10:22:10.634Z,-90
2016-06-24T10:23:11.065Z,-90
2016-06-24T10:24:10.640Z,-90
2016-06-24T10:25:10.779Z,-91
2016-06-24T10:26:10.694Z,-91
2016-06-24T10:27:10.624Z,-91
2016-06-24T10:28:10.713Z,-91
2016-06-24T10:29:10.687Z,-91
2016-06-24T10:30:10.730Z,-91
2016-06-24T10:31:10.731Z,-92
2016-06-24T10:32:10.739Z,-91
2016-06-24T10:33:11.278Z,-91
2016-06-24T10:34:10.690Z,-92
2016-06-24T10:35:10.677Z,-90
2016-06-24T10:36:10.647Z,-91
2016-06-24T10:37:10.683Z,-92
2016-06-24T10:38:10.691Z,-91
2016-06-24T10:39:10.740Z,-92
2016-06-24T10:40:10.722Z,-92
2016-06-24T10:41:10.685Z,-92
2016-06-24T10:42:10.719Z,-93
2016-06-24T10:43:10.725Z,-93
2016-06-24T10:44:10.702Z,-92
2016-06-24T10:45:10.735Z,-93
2016-06-24T10:46:10.847Z,-93
2016-06-24T10:47:10.869Z,-92
2016-06-24T10:48:10.782Z,-91
2016-06-24T10:49:10.751Z,-92
2016-06-24T10:50:10.722Z,-92
2016-06-24T10:51:10.782Z,-92
2016-06-24T10:52:10.793Z,-92
2016-06-24T10:53:10.711Z,-91
2016-06-24T10:54:11.708Z,-91
2016-06-24T10:55:10.849Z,-91
2016-06-24T10:56:10.771Z,-91
2016-06-24T10:57:11.788Z,-92
2016-06-24T10:58:10.805Z,-91
2016-06-24T10:59:11.432Z,-91
2016-06-24T11:00:10.718Z,-91
2016-06-24T11:01:10.702Z,-90
2016-06-24T11:02:10.796Z,-90
2016-06-24T11:03:11.087Z,-91
2016-06-24T11:04:10.803Z,-90
2016-06-24T11:05:10.867Z,-90
2016-06-24T11:06:10.810Z,-89
2016-06-24T11:07:10.921Z,-89
2016-06-24T11:08:10.864Z,-90
2016-06-24T11:09:10.853Z,-89
2016-06-24T11:10:10.817Z,-89
2016-06-24T11:11:10.758Z,-90
2016-06-24T11:12:10.746Z,-91
2016-06-24T11:13:10.835Z,-90
2016-06-24T11:14:10.688Z,-89
2016-06-24T11:15:10.730Z,-90
2016-06-24T11:16:10.724Z,-89
2016-06-24T11:17:10.786Z,-89
2016-06-24T11:18:10.728Z,-90
2016-06-24T11:19:10.790Z,-89
2016-06-24T11:20:12.581Z,-90
2016-06-24T11:21:10.892Z,-90
2016-06-24T11:22:10.917Z,-89
2016-06-24T11:23:10.793Z,-89
2016-06-24T11:24:10.805Z,-89
2016-06-24T11:25:10.806Z,-89
2016-06-24T11:26:10.995Z,-90
2016-06-24T11:27:10.891Z,-89
2016-06-24T11:28:10.754Z,-89
2016-06-24T11:29:10.737Z,-89
2016-06-24T11:30:10.802Z,-90
2016-06-24T11:31:10.809Z,-90
2016-06-24T11:32:10.732Z,-89
2016-06-24T11:33:10.736Z,-90
2016-06-24T11:34:10.967Z,-90
2016-06-24T11:35:10.742Z,-89
2016-06-24T11:36:10.795Z,-89
2016-06-24T11:37:17.107Z,-90
2016-06-24T11:38:12.971Z,-90
2016-06-24T11:39:10.834Z,-89
2016-06-24T11:40:10.943Z,-89
2016-06-24T11:41:10.879Z,-88
2016-06-24T11:42:11.073Z,-89
2016-06-24T11:43:12.353Z,-89
2016-06-24T11:44:11.464Z,-90
2016-06-24T11:45:12.139Z,-89
2016-06-24T11:46:11.211Z,-89
2016-06-24T11:47:11.324Z,-88
2016-06-24T11:48:10.743Z,-88
2016-06-24T11:49:10.869Z,-89
2016-06-24T11:50:10.765Z,-89
2016-06-24T11:51:10.837Z,-90
2016-06-24T11:52:10.796Z,-90
2016-06-24T11:53:10.862Z,-88
2016-06-24T11:54:10.850Z,-90
2016-06-24T11:55:11.325Z,-89
2016-06-24T11:56:10.962Z,-89
2016-06-24T11:57:10.829Z,-89
2016-06-24T11:58:10.834Z,-89
2016-06-24T11:59:10.869Z,-89
2016-06-24T12:00:11.030Z,-89
2016-06-24T12:01:11.425Z,-89
2016-06-24T12:02:10.864Z,-90
2016-06-24T12:03:10.928Z,-89
2016-06-24T12:04:10.907Z,-89
2016-06-24T12:05:10.871Z,-90
2016-06-24T12:06:10.931Z,-90
2016-06-24T12:07:11.007Z,-89
2016-06-24T12:08:10.970Z,-89
2016-06-24T12:09:10.818Z,-90
2016-06-24T12:10:10.846Z,-90
2016-06-24T12:11:10.977Z,-90
2016-06-24T12:12:10.958Z,-89
2016-06-24T12:13:10.827Z,-90
2016-06-24T12:14:10.869Z,-90
2016-06-24T12:15:10.850Z,-90
2016-06-24T12:16:10.783Z,-89
2016-06-24T12:17:10.829Z,-90
2016-06-24T12:18:10.890Z,-90
2016-06-24T12:19:10.791Z,-89
2016-06-24T12:20:10.793Z,-90
2016-06-24T12:21:10.939Z,-90
2016-06-24T12:22:10.926Z,-89
2016-06-24T12:23:10.855Z,-90
2016-06-24T12:24:10.886Z,-89
2016-06-24T12:25:10.851Z,-90
2016-06-24T12:26:10.983Z,-90
2016-06-24T12:27:10.933Z,-88
2016-06-24T12:28:10.877Z,-89
2016-06-24T12:29:10.818Z,-90
2016-06-24T12:30:10.890Z,-89
2016-06-24T12:31:10.839Z,-90
2016-06-24T12:32:10.833Z,-90
2016-06-24T12:33:10.897Z,-89
2016-06-24T12:34:10.845Z,-89
2016-06-24T12:35:10.891Z,-89
2016-06-24T12:36:10.885Z,-89
2016-06-24T12:37:10.890Z,-89
2016-06-24T12:38:10.963Z,-88
2016-06-24T12:39:10.898Z,-89
2016-06-24T12:40:10.901Z,-89
2016-06-24T12:41:10.894Z,-90
2016-06-24T12:42:10.958Z,-89
2016-06-24T12:43:10.945Z,-89
2016-06-24T12:44:10.906Z,-89
2016-06-24T12:45:10.886Z,-89
2016-06-24T12:46:10.896Z,-89
2016-06-24T12:47:10.899Z,-89
2016-06-24T12:48:10.932Z,-89
2016-06-24T12:49:10.830Z,-89
2016-06-24T12:50:10.839Z,-90
2016-06-24T12:51:10.982Z,-89
2016-06-24T12:52:10.952Z,-89
2016-06-24T12:53:11.010Z,-89
2016-06-24T12:54:10.922Z,-89
2016-06-24T12:55:10.856Z,-89
2016-06-24T12:56:11.107Z,-88
2016-06-24T12:57:10.936Z,-87
2016-06-24T12:58:10.909Z,-88
2016-06-24T12:59:10.917Z,-88
2016-06-24T13:00:10.978Z,-88
2016-06-24T13:01:10.956Z,-88
2016-06-24T13:02:11.058Z,-88
2016-06-24T13:03:10.961Z,-89
2016-06-24T13:04:11.050Z,-88
2016-06-24T13:05:10.942Z,-88
2016-06-24T13:06:11.566Z,-89
2016-06-24T13:07:10.982Z,-89
2016-06-24T13:08:10.938Z,-88
2016-06-24T13:09:11.051Z,-89
2016-06-24T13:10:10.933Z,-89
2016-06-24T13:11:11.015Z,-89
2016-06-24T13:12:10.966Z,-89
2016-06-24T13:13:11.084Z,-88
2016-06-24T13:14:10.986Z,-88
2016-06-24T13:15:10.971Z,-89
2016-06-24T13:16:11.038Z,-90
2016-06-24T13:17:12.896Z,-88
2016-06-24T13:18:12.144Z,-89
2016-06-24T13:19:11.607Z,-88
2016-06-24T13:20:11.525Z,-89
2016-06-24T13:21:11.391Z,-88
2016-06-24T13:22:10.963Z,-87
2016-06-24T13:23:11.084Z,-88
2016-06-24T13:24:10.999Z,-87
2016-06-24T13:25:10.934Z,-88
2016-06-24T13:26:11.011Z,-88
2016-06-24T13:27:10.962Z,-89
2016-06-24T13:28:10.891Z,-88
2016-06-24T13:29:10.921Z,-88
2016-06-24T13:30:10.947Z,-89
2016-06-24T13:31:10.934Z,-89
2016-06-24T13:32:10.976Z,-87
2016-06-24T13:33:11.007Z,-89
2016-06-24T13:34:10.910Z,-89
2016-06-24T13:35:10.962Z,-88
2016-06-24T13:36:10.979Z,-89
2016-06-24T13:37:10.926Z,-89
2016-06-24T13:38:10.976Z,-89
2016-06-24T13:39:10.946Z,-88
2016-06-24T13:40:11.069Z,-89
2016-06-24T13:41:11.545Z,-88
2016-06-24T13:42:11.513Z,-89
2016-06-24T13:43:11.063Z,-90
2016-06-24T13:44:10.940Z,-88
2016-06-24T13:45:11.019Z,-88
2016-06-24T13:46:11.050Z,-88
2016-06-24T13:47:10.909Z,-87
2016-06-24T13:48:10.989Z,-88
2016-06-24T13:49:10.975Z,-88
2016-06-24T13:50:10.975Z,-88
2016-06-24T13:51:10.927Z,-88
2016-06-24T13:52:11.016Z,-88
2016-06-24T13:53:10.946Z,-89
2016-06-24T13:54:10.962Z,-88
2016-06-24T13:55:10.921Z,-88
2016-06-24T13:56:11.071Z,-88
2016-06-24T13:57:10.996Z,-88
2016-06-24T13:58:10.971Z,-88